CheckWX is a tool to help pilots better visualize weather data.  It is not intended as a substitute for an official pre-flight weather briefing.

23:27:50 UTC

EGPO TAF
Stornoway Airport
Stornoway, United Kingdom
TAF EGPO 122014Z 1221/1306 08009KT 9999 SCT015 PROB30 TEMPO 1303/1306 6000 SHRA BKN012

Dec-12@
21:00 UTC

Dec-12 @ 21:00 UTC

Dec-13@
06:00 UTC

Dec-13 @ 06:00 UTC

TAF EGPO 122014Z 1221/1306 08009KT 9999 SCT015
Wind
  • 080° at 9 KTS
Cloud Levels
  • Scattered at 1,500' AGL

Dec-13@
03:00 UTC

Dec-13 @ 03:00 UTC

Dec-13@
06:00 UTC

Dec-13 @ 06:00 UTC

PROB30 TEMPO 1303/1306 6000 SHRA BKN012

Temporary - 30% Likelihood

Temporary - 30% Likelihood during this time.

Conditions
Rain
Cloud Levels
  • Broken at 1,200' AGL